Date,TemperatureHighF,TemperatureAvgF,TemperatureLowF,DewpointHighF,DewpointAvgF,DewpointLowF,HumidityHigh,HumidityAvg,HumidityLow,PressureMaxIn,PressureMinIn,WindSpeedMaxMPH,WindSpeedAvgMPH,GustSpeedMaxMPH,PrecipitationSumIn
2013-5-9,72.3,63.5,53.8,55.5,52.8,50.2,89,69,53,29.85,29.74,8,3,11,0.00
2013-5-10,84.4,67.7,50.2,56.7,52.6,46.8,90,62,35,29.86,29.72,13,3,13,0.00
2013-5-11,74.1,64.8,59.7,65.8,59.5,51.4,91,83,67,29.73,29.55,15,4,15,0.25
2013-5-12,70.7,58.2,46.2,51.8,39.1,18.9,77,53,18,29.75,29.51,13,1,13,0.00
2013-5-13,57.4,47.9,39.4,29.7,24.0,19.0,63,41,24,29.96,29.75,10,0,10,0.00
2013-5-14,66.9,50.8,32.9,32.2,24.7,17.9,78,42,17,30.00,29.86,1,0,1,0.00
2013-5-15,71.2,52.5,35.1,50.5,38.2,27.8,81,60,37,29.93,29.49,7,0,7,0.04
2013-5-16,88.7,70.2,47.7,50.8,41.9,31.1,89,45,17,29.71,29.55,20,0,20,0.00
2013-5-17,75.4,63.9,51.1,41.7,36.5,29.1,60,37,24,30.08,29.71,21,0,21,0.00
2013-5-18,74.3,60.8,44.8,49.0,43.2,39.0,82,55,30,30.18,30.07,8,0,8,0.00
2013-5-19,59.2,57.1,54.1,55.1,52.7,48.6,89,85,78,30.19,30.03,6,0,6,0.24
2013-5-20,88.2,71.0,57.2,66.2,59.7,54.0,90,70,45,30.03,29.78,8,0,8,0.00
2013-5-21,95.0,78.6,63.3,71.9,66.0,60.4,93,68,46,29.82,29.63,15,0,15,0.00
2013-5-22,82.8,73.5,66.6,69.7,65.3,59.5,91,76,59,29.77,29.66,7,0,7,0.00
2013-5-23,78.6,70.9,65.1,69.9,63.9,58.2,96,79,60,29.73,29.58,8,0,8,0.31
2013-5-24,66.7,55.4,44.4,65.6,50.7,36.1,96,84,67,29.85,29.53,17,1,17,0.57
2013-5-25,54.9,49.6,44.4,41.7,36.6,32.2,81,61,49,29.83,29.75,16,1,16,0.14
2013-5-26,66.7,55.6,47.5,37.2,33.4,29.4,58,44,28,30.03,29.75,1,0,1,0.00
2013-5-27,82.8,64.3,41.4,40.7,34.9,31.1,72,37,19,30.09,29.95,0,0,0,0.00
2013-5-28,73.9,58.6,48.2,55.1,45.7,35.4,92,66,27,30.09,29.99,9,0,9,0.32
2013-5-29,86.4,69.2,57.4,70.9,61.9,55.1,95,79,56,30.00,29.80,0,0,0,0.48
2013-5-30,98.2,82.1,63.0,72.5,68.9,62.1,99,68,39,29.97,29.88,0,0,0,0.00
2013-5-31,98.2,82.8,65.3,73.8,66.8,62.9,93,62,34,29.99,29.81,0,0,0,0.00
2013-6-1,97.5,81.6,65.5,72.0,67.0,59.7,88,63,43,29.86,29.72,1,0,1,0.00
2013-6-2,91.2,78.4,68.0,73.1,69.0,63.8,95,74,51,29.74,29.58,0,0,0,0.46
2013-6-3,80.1,70.4,57.7,68.5,61.2,44.6,96,74,49,29.79,29.65,0,0,0,0.13
2013-6-4,84.2,66.8,48.2,46.6,40.5,31.7,85,43,20,29.99,29.79,0,0,0,0.00
2013-6-5,81.0,66.8,46.4,47.6,43.7,36.5,83,46,28,30.09,29.94,0,0,0,0.00
2013-6-6,77.2,63.5,54.1,56.2,50.7,46.8,92,65,41,30.02,29.89,18,2,18,0.14
2013-6-7,60.1,58.4,56.1,58.4,56.4,54.4,95,93,89,29.90,29.59,11,2,11,1.61
2013-6-8,81.9,67.7,55.2,65.2,57.9,53.1,96,72,48,29.92,29.54,13,3,13,0.34
2013-6-9,88.3,72.7,55.8,60.3,57.4,54.1,95,62,38,30.03,29.92,11,2,11,0.00
2013-6-10,66.7,62.5,59.2,63.4,59.5,56.0,98,90,78,30.04,29.72,8,1,8,1.65
2013-6-11,82.0,68.8,60.6,68.7,61.9,52.4,98,81,51,29.73,29.44,14,4,14,0.39
2013-6-12,82.0,70.6,59.4,55.1,51.9,48.4,82,53,37,29.71,29.53,15,4,17,0.00
2013-6-13,59.2,57.0,54.3,56.8,54.6,51.3,95,91,81,29.70,29.47,11,3,11,1.84
2013-6-14,79.0,65.2,52.0,59.4,54.7,49.3,94,71,43,29.74,29.50,11,3,11,0.33
2013-6-15,86.4,70.9,52.5,57.6,51.3,45.2,94,55,26,29.87,29.73,12,3,12,0.00
2013-6-16,79.9,67.3,54.1,63.2,55.4,47.8,86,67,47,29.85,29.58,18,3,18,0.00
2013-6-17,91.9,74.3,59.2,67.0,61.1,55.8,97,67,33,29.79,29.66,27,4,27,0.02
2013-6-18,78.8,65.3,59.9,64.4,58.4,48.3,96,79,58,29.80,29.73,17,4,17,0.12
2013-6-19,79.2,66.4,51.4,50.4,47.0,42.7,89,53,33,30.03,29.78,18,4,18,0.00
2013-6-20,85.8,70.1,50.4,56.8,52.3,47.1,90,57,35,30.14,30.03,14,3,14,0.00
2013-6-21,90.0,75.0,59.2,66.8,60.6,54.2,87,62,46,30.13,30.04,13,3,13,0.00
2013-6-22,89.8,77.2,62.8,67.1,62.1,57.6,84,61,43,30.09,29.93,14,4,14,0.00
2013-6-23,94.6,81.9,68.5,73.9,67.1,60.5,82,62,38,30.01,29.86,17,5,19,0.00
2013-6-24,96.8,79.4,69.4,76.7,70.1,65.4,93,75,48,29.91,29.78,12,3,12,0.48
2013-6-25,94.8,80.0,66.6,74.3,69.8,65.2,97,73,44,29.85,29.63,16,4,16,0.00
2013-6-26,87.8,78.2,70.0,73.3,69.9,67.0,93,77,54,29.69,29.62,9,2,9,0.00
2013-6-27,92.1,77.5,66.7,73.1,69.7,66.3,99,79,49,29.68,29.37,11,3,11,0.60
2013-6-28,89.2,77.4,68.0,72.2,69.1,66.6,99,78,52,29.39,29.29,16,6,16,0.48
2013-6-29,87.8,75.9,65.8,68.4,66.1,64.2,99,74,49,29.55,29.34,12,4,12,0.01
2013-6-30,90.5,74.0,66.0,74.1,68.4,64.1,99,84,56,29.78,29.54,15,2,15,0.86
2013-7-1,79.7,72.4,68.9,75.3,71.6,68.6,99,97,79,29.89,29.76,10,1,10,0.91
2013-7-2,89.4,79.2,72.5,78.2,74.6,72.2,99,87,65,30.01,29.88,15,3,15,0.24
2013-7-3,90.9,80.4,72.7,76.1,73.5,71.7,97,80,59,30.08,29.99,14,5,14,0.00
2013-7-4,95.5,83.6,71.2,77.2,74.3,71.0,99,75,55,30.09,29.96,16,5,16,0.00
2013-7-5,96.3,85.4,75.2,80.0,75.1,72.9,94,73,55,30.05,29.90,16,5,16,0.00
2013-7-6,100.0,86.2,75.0,77.5,74.0,70.7,91,69,45,29.98,29.86,9,3,11,0.00
2013-7-7,99.5,83.5,73.2,81.6,75.0,71.4,96,77,54,29.91,29.78,14,3,14,0.00
2013-7-8,89.2,78.2,72.5,77.7,74.5,72.2,99,90,65,30.00,29.87,10,3,10,0.26
2013-7-9,91.8,80.5,72.9,76.2,73.6,71.7,97,81,57,30.12,29.87,10,3,10,1.52
2013-7-10,89.4,78.8,71.4,78.5,74.3,70.2,98,87,65,29.90,29.67,13,4,13,0.27
2013-7-11,89.1,78.3,68.9,76.4,70.4,62.9,99,79,51,29.85,29.66,11,2,11,0.01
2013-7-12,88.2,77.2,69.1,68.5,62.2,56.9,81,60,48,30.06,29.84,15,5,15,0.00
2013-7-13,81.3,72.0,64.9,73.5,67.0,56.4,97,84,54,30.19,30.05,13,2,13,0.07
2013-7-14,96.3,83.7,70.9,79.5,75.2,70.6,99,78,54,30.23,30.10,9,2,9,0.00
2013-7-15,100.0,84.7,73.2,78.3,74.3,69.7,99,74,43,30.15,30.03,12,2,12,0.00
2013-7-16,99.3,85.2,68.9,76.3,71.8,68.0,98,67,41,30.13,30.02,15,2,15,0.00
2013-7-17,99.1,86.5,71.8,78.3,74.2,70.5,97,69,48,30.12,29.92,10,3,11,0.00
2013-7-18,104.2,88.7,74.8,80.3,75.5,72.3,93,68,42,29.95,29.83,11,3,11,0.00
2013-7-19,101.3,88.5,76.3,80.2,76.1,73.0,95,69,46,29.86,29.63,20,5,20,0.00
2013-7-20,96.1,84.3,76.8,77.1,73.4,63.7,90,71,47,29.75,29.59,14,4,14,0.00
2013-7-21,93.7,79.0,66.2,70.2,65.0,61.5,89,64,36,29.87,29.75,8,2,8,0.00
2013-7-22,90.9,76.7,68.0,75.5,68.6,59.7,99,78,55,29.90,29.70,11,2,11,0.84
2013-7-23,89.4,76.8,71.8,79.6,74.4,71.0,99,93,64,29.70,29.46,12,2,12,1.02
2013-7-24,84.4,73.0,59.9,75.9,64.2,51.6,99,76,49,29.90,29.51,11,3,11,0.00
2013-7-25,78.3,66.5,58.8,59.1,52.2,45.6,75,60,48,29.99,29.89,17,5,17,0.00
2013-7-26,86.7,72.7,64.4,65.1,59.5,54.1,88,64,47,29.96,29.88,12,3,12,0.00
2013-7-27,90.7,76.2,60.3,68.1,63.4,60.0,99,68,42,29.95,29.83,14,3,14,0.00
2013-7-28,79.5,71.0,67.3,73.4,68.0,62.1,99,90,73,29.90,29.82,7,1,7,0.52
2013-7-29,88.3,76.1,66.2,72.9,64.2,55.8,99,71,36,30.01,29.85,17,3,17,0.00
2013-7-30,88.3,72.6,57.9,63.3,59.6,55.6,96,67,38,30.07,29.98,11,2,11,0.00
2013-7-31,87.6,74.3,59.0,64.1,61.1,57.6,96,66,41,30.08,29.92,8,2,9,0.00
2013-8-1,79.3,67.6,64.0,69.0,65.6,63.1,99,94,67,29.93,29.74,14,2,14,0.69
2013-8-2,89.4,74.1,63.9,70.9,64.1,59.5,99,74,41,29.79,29.70,15,3,15,0.01
2013-8-3,89.6,74.3,63.3,67.2,60.1,52.0,92,64,36,29.79,29.69,10,3,11,0.00
2013-8-4,85.5,69.8,57.6,64.6,55.9,48.9,94,64,39,29.87,29.74,14,3,14,0.08
2013-8-5,82.8,69.7,54.3,54.9,50.7,46.1,90,54,31,29.96,29.86,11,3,11,0.00
2013-8-6,86.4,70.7,53.2,60.1,55.7,51.1,95,63,36,30.02,29.95,12,2,12,0.00
2013-8-7,79.2,70.5,61.9,67.9,62.3,56.4,97,76,62,30.05,29.94,12,2,12,0.01
2013-8-8,90.3,76.4,68.7,77.3,71.7,67.9,99,86,59,29.95,29.87,11,3,11,0.02
2013-8-9,86.4,75.1,72.1,79.3,74.2,71.9,99,97,77,29.88,29.67,13,2,13,1.70
2013-8-10,88.7,75.0,61.5,72.4,62.1,54.6,99,69,37,29.96,29.75,16,3,16,0.01
2013-8-11,86.5,70.5,53.6,65.8,59.1,52.8,99,71,42,30.03,29.89,11,2,11,0.00
2013-8-12,88.3,74.1,60.1,66.2,62.7,56.2,99,71,41,29.95,29.80,10,2,10,0.00
2013-8-13,80.8,70.7,66.7,71.8,67.7,64.5,99,90,73,29.81,29.56,12,2,12,0.72
2013-8-14,79.3,67.0,57.6,66.8,52.7,47.1,99,62,41,29.93,29.65,20,4,20,0.00
2013-8-15,84.2,66.6,52.2,58.5,53.2,49.9,93,66,33,30.04,29.92,11,3,11,0.00
2013-8-16,86.5,69.7,54.5,61.9,57.1,52.8,95,68,38,30.11,30.02,8,2,8,0.00
2013-8-17,88.0,70.9,54.3,63.5,59.5,53.6,99,71,39,30.20,30.10,9,2,9,0.00
2013-8-18,80.8,69.3,59.4,66.9,63.5,59.1,99,83,60,30.18,30.01,5,1,5,0.00
2013-8-19,84.0,72.2,60.6,69.1,64.6,60.4,99,79,55,30.02,29.91,8,2,8,0.00
2013-8-20,93.6,75.3,58.1,70.1,65.0,57.8,99,74,41,30.03,29.94,11,2,11,0.00
2013-8-21,93.2,76.7,60.3,70.0,66.0,59.7,98,73,43,30.09,29.93,10,3,10,0.00
2013-8-22,88.5,77.2,65.8,77.7,71.0,64.4,99,82,63,29.95,29.73,13,3,13,0.06
2013-8-23,84.0,73.4,64.0,68.8,60.3,50.8,92,65,43,30.06,29.77,14,3,14,0.00
2013-8-24,84.0,68.9,53.4,57.6,53.8,48.8,92,62,36,30.25,30.06,11,3,11,0.00
2013-8-25,87.6,70.0,52.9,63.8,58.1,52.3,99,70,36,30.30,30.09,15,3,15,0.00
2013-8-26,77.2,69.8,63.1,72.9,65.4,57.2,99,86,69,30.11,29.79,9,2,9,0.58
2013-8-27,88.7,76.6,68.4,74.7,71.1,68.1,99,85,59,29.81,29.72,12,2,12,0.97
2013-8-28,94.3,75.8,63.9,74.6,69.5,63.6,99,83,51,29.81,29.65,14,2,14,0.00
2013-8-29,85.3,73.0,67.1,72.4,69.0,66.8,99,88,61,29.95,29.81,7,2,7,0.00
2013-8-30,91.2,78.2,66.2,73.1,70.1,65.9,99,78,51,29.91,29.72,10,3,10,0.00
2013-8-31,88.2,76.6,69.6,77.9,73.4,68.7,99,91,70,29.73,29.64,16,5,16,0.08
2013-9-1,86.9,76.1,68.2,77.1,72.5,67.9,99,89,67,29.76,29.68,10,2,10,0.12
2013-9-2,86.0,72.7,-39.1,78.2,71.5,-38.9,99,96,75,29.71,29.59,42,1,42,0.72
2013-9-3,79.7,60.9,-32.4,72.9,58.7,-39.2,99,94,55,29.78,29.62,8,1,8,0.00
2013-9-4,89.2,72.1,57.4,64.2,59.3,56.1,99,68,37,29.88,29.77,9,1,10,0.00
2013-9-5,81.1,67.5,54.1,62.1,52.3,42.3,93,62,31,30.08,29.79,12,2,12,0.00
2013-9-6,75.2,59.8,44.4,49.9,45.8,42.1,96,64,35,30.19,30.01,8,1,8,0.00
2013-9-7,83.1,64.8,47.8,63.2,54.3,46.4,96,72,39,30.03,29.77,7,0,7,0.00
2013-9-8,83.5,68.2,53.4,67.3,54.8,39.7,98,66,32,30.02,29.71,13,2,13,0.01
2013-9-9,76.5,61.9,44.8,56.5,48.8,40.2,93,64,42,30.16,30.00,11,1,11,0.00
2013-9-10,85.6,72.0,63.9,78.0,68.3,55.8,99,88,75,30.05,29.91,12,1,12,0.09
2013-9-11,99.0,82.4,71.8,84.5,76.4,68.8,99,84,58,29.99,29.83,16,1,16,0.02
2013-9-12,89.8,75.4,68.4,80.0,72.1,67.4,99,90,67,29.88,29.58,21,1,21,1.02
2013-9-13,78.4,67.4,55.2,69.3,61.2,49.2,99,82,58,29.76,29.52,8,1,10,0.02
2013-9-14,69.8,59.5,48.7,50.7,47.4,44.2,91,66,48,30.02,29.76,7,1,7,0.00
2013-9-15,75.4,58.6,42.6,54.9,49.1,42.1,99,74,43,30.11,29.96,8,1,8,0.00
2013-9-16,74.8,60.3,50.2,59.6,52.9,38.9,99,78,55,30.21,29.93,13,2,14,0.02
2013-9-17,68.4,54.6,41.2,46.4,41.5,37.5,93,64,39,30.37,30.20,13,2,13,0.00
2013-9-18,80.2,57.0,41.7,53.6,46.5,40.9,99,73,34,30.26,30.06,7,0,7,0.00
2013-9-19,83.3,63.4,43.7,58.2,51.7,43.2,99,70,37,30.08,29.95,7,0,7,0.00
2013-9-20,86.0,66.4,47.3,64.3,56.2,47.0,99,73,43,30.00,29.85,8,0,8,0.00
2013-9-21,76.5,66.0,53.1,67.4,61.0,52.8,99,85,61,29.89,29.51,13,1,13,0.57
2013-9-22,72.7,62.9,53.6,65.6,51.2,39.8,99,69,40,29.83,29.53,14,3,14,0.21
2013-9-23,68.9,57.1,45.9,45.4,40.7,36.3,80,56,36,29.97,29.81,16,2,16,0.00
2013-9-24,79.0,57.1,38.7,51.2,44.5,37.4,97,68,34,29.96,29.76,7,1,7,0.00
2013-9-25,77.2,58.4,41.5,55.9,48.6,40.8,99,74,42,29.88,29.77,8,1,8,0.00
2013-9-26,73.4,59.6,50.4,53.7,50.7,46.2,99,75,48,30.03,29.86,15,2,15,0.00
2013-9-27,71.4,57.8,45.0,55.0,49.7,44.4,99,76,54,30.19,30.03,10,2,10,0.00
2013-9-28,81.5,60.3,47.7,57.7,51.9,47.4,99,78,37,30.27,30.14,8,1,8,0.00
2013-9-29,80.8,60.6,44.8,58.7,51.7,44.5,99,77,38,30.15,29.96,5,0,6,0.00
2013-9-30,80.6,62.5,47.1,58.2,53.0,46.9,99,76,40,30.01,29.86,8,0,8,0.00
2013-10-1,87.1,63.1,46.4,64.2,55.5,46.1,99,80,44,29.93,29.79,6,0,6,0.00
2013-10-2,89.8,68.2,51.3,68.1,58.9,51.0,99,76,43,29.92,29.79,15,1,15,0.00
2013-10-3,82.0,64.6,49.3,59.3,55.5,48.8,99,76,41,30.03,29.92,8,2,8,0.01
2013-10-4,79.0,64.2,56.3,65.2,59.8,56.0,99,87,58,29.97,29.88,8,2,9,0.00
2013-10-5,78.8,64.3,59.2,67.0,61.0,58.9,99,90,66,30.01,29.93,7,1,7,0.25
2013-10-6,61.7,60.3,56.5,61.4,59.9,56.2,99,98,91,30.02,29.94,5,1,5,0.77
2013-10-7,75.6,64.2,53.8,72.9,63.2,53.5,99,96,82,29.94,29.55,21,3,21,0.51
2013-10-8,70.7,57.4,45.3,55.1,45.7,41.4,99,68,40,30.27,29.86,14,3,14,0.00
2013-10-9,69.3,53.4,40.6,51.5,44.9,40.4,99,77,42,30.37,30.23,11,2,11,0.00
2013-10-10,59.5,50.7,42.4,48.0,45.8,42.2,99,84,62,30.25,30.05,8,2,8,0.00
2013-10-11,78.6,59.3,47.5,59.6,48.3,42.0,92,69,46,30.05,29.95,10,2,10,0.00
2013-10-12,79.3,59.2,43.2,58.1,50.4,42.5,99,76,46,30.25,30.03,16,3,17,0.00
2013-10-13,76.3,60.4,48.2,57.7,50.5,47.3,99,73,44,30.32,30.22,11,2,11,0.00
2013-10-14,74.1,60.2,47.7,55.6,51.6,46.8,98,76,50,30.28,30.11,9,2,9,0.00
2013-10-15,79.9,64.8,55.8,61.1,55.1,39.7,96,73,49,30.17,30.02,8,2,8,0.00
2013-10-16,62.4,56.7,50.0,57.0,51.3,41.9,92,82,55,30.03,29.78,9,2,9,0.00
2013-10-17,81.7,68.4,59.4,63.8,57.9,51.9,96,73,38,29.79,29.51,14,4,14,0.00
2013-10-18,74.8,61.8,46.2,64.5,47.6,38.6,99,63,31,29.86,29.49,14,4,14,0.06
2013-10-19,70.2,53.3,41.4,50.9,42.7,38.9,94,70,39,29.88,29.62,16,2,16,0.04
2013-10-20,69.3,54.9,42.4,51.0,39.2,32.0,99,60,30,29.95,29.61,14,3,14,0.01
2013-10-21,70.9,53.5,37.0,43.4,38.7,34.5,94,61,32,30.03,29.85,17,3,17,0.00
2013-10-22,68.0,50.8,38.8,50.0,42.7,36.5,92,75,47,29.85,29.62,14,4,14,0.00
2013-10-23,60.3,44.5,35.1,41.9,35.9,31.2,97,74,41,29.73,29.51,9,2,9,0.00
2013-10-24,59.0,45.3,33.1,33.9,27.9,22.3,86,53,28,29.85,29.63,19,4,19,0.00
2013-10-25,56.8,44.3,35.4,34.2,29.3,25.5,77,56,36,30.09,29.85,13,2,14,0.00
2013-10-26,57.6,45.2,33.8,32.6,29.6,26.1,88,58,32,30.08,29.74,29,7,29,0.00
2013-10-27,61.9,48.4,37.0,35.4,29.8,26.3,75,50,30,30.00,29.71,14,3,14,0.00
2013-10-28,64.4,44.9,30.4,37.5,31.3,24.1,92,62,35,30.25,29.99,14,3,17,0.00
2013-10-29,57.4,43.1,32.5,28.5,23.9,21.0,75,47,32,30.36,30.25,11,3,11,0.00
2013-10-30,63.5,45.5,33.3,44.2,33.6,25.9,90,65,45,30.25,30.06,11,2,11,0.00
2013-10-31,59.2,48.0,36.5,58.9,47.1,34.7,99,96,90,30.13,29.62,8,1,8,0.52
2013-11-1,75.7,62.6,48.6,65.1,55.3,44.3,99,80,42,29.62,29.33,25,6,25,0.38
2013-11-2,69.3,52.5,41.2,49.7,44.1,40.7,99,76,44,29.68,29.50,14,2,14,0.00
2013-11-3,46.6,39.5,29.8,43.5,27.4,14.6,95,62,47,30.39,29.67,20,6,20,0.00
2013-11-4,47.3,33.5,22.1,25.0,18.0,13.9,87,57,28,30.58,30.38,14,2,14,0.00
2013-11-5,57.4,42.6,28.4,37.2,29.7,20.2,78,61,45,30.58,30.37,15,3,15,0.00
2013-11-6,59.4,51.7,43.9,45.9,42.1,36.8,79,70,57,30.38,29.92,21,4,21,0.00
2013-11-7,58.1,50.9,34.9,57.6,45.0,28.8,99,81,54,29.92,29.65,11,3,11,0.22
2013-11-8,51.3,41.5,33.1,33.2,27.5,24.6,91,58,40,30.07,29.79,22,5,22,0.01
2013-11-9,50.0,42.3,36.0,29.1,26.2,22.5,69,53,42,30.15,29.85,14,3,14,0.00
2013-11-10,56.5,46.2,42.1,38.0,30.6,25.9,71,55,40,29.89,29.70,21,5,21,0.01
2013-11-11,55.9,47.2,40.5,30.3,27.6,25.1,56,47,35,30.06,29.82,15,5,17,0.00
2013-11-12,48.0,36.4,28.6,32.2,16.8,9.1,59,45,32,30.18,29.82,18,5,18,0.00
2013-11-13,44.2,31.5,19.9,15.5,11.9,8.2,74,46,24,30.27,30.10,11,2,11,0.00
2013-11-14,60.1,42.9,29.1,19.6,15.4,12.0,54,35,19,30.11,29.96,16,6,16,0.00
2013-11-15,64.9,45.3,26.2,24.6,18.0,11.4,64,36,20,30.11,29.99,14,3,14,0.00
2013-11-16,66.9,49.0,36.9,39.1,32.4,19.0,89,56,33,30.22,30.08,11,2,11,0.01
2013-11-17,58.6,48.4,37.0,58.4,46.9,31.8,99,95,79,30.17,29.62,10,1,10,0.13
2013-11-18,66.7,57.9,46.0,60.2,43.1,24.9,99,62,37,29.67,29.40,33,7,33,0.24
2013-11-19,50.4,40.2,27.0,29.9,21.4,16.7,71,47,37,30.27,29.67,21,6,21,0.00
2013-11-20,44.8,31.5,21.4,19.0,14.1,10.3,77,50,30,30.54,30.27,14,3,14,0.00
2013-11-21,49.1,34.2,18.0,28.8,21.4,14.5,88,62,34,30.54,30.27,8,1,8,0.00
2013-11-22,57.2,46.9,39.6,49.2,41.4,27.4,99,82,58,30.28,29.77,11,2,11,0.15
2013-11-23,49.5,39.0,25.5,26.3,17.4,3.4,76,43,28,29.93,29.76,23,7,23,0.00
2013-11-24,33.3,24.8,20.8,7.7,0.7,-6.0,50,35,20,30.22,29.86,26,9,26,0.00
2013-11-25,40.3,28.2,15.6,12.8,8.3,1.4,62,43,29,30.34,30.17,20,5,20,0.00
2013-11-26,34.9,32.0,27.0,33.0,25.1,9.4,97,78,39,30.21,29.76,14,4,14,0.64
2013-11-27,42.6,39.3,33.8,42.4,35.5,18.0,99,88,51,29.76,29.26,19,3,19,0.98
2013-11-28,37.8,29.7,24.1,18.7,10.8,5.5,59,45,32,30.36,29.57,21,7,21,0.00
2013-11-29,41.7,28.2,20.5,21.4,14.6,6.5,69,57,40,30.65,30.35,10,2,10,0.00
2013-11-30,35.2,25.9,14.0,17.8,10.9,6.8,82,55,33,30.69,30.27,11,2,11,0.00
2013-12-1,43.0,34.4,27.9,28.7,24.5,17.6,81,67,55,30.27,29.90,8,2,8,0.00
2013-12-2,39.2,34.2,32.0,31.6,28.6,26.9,84,80,71,29.92,29.86,4,1,4,0.01
2013-12-5,57.0,47.8,39.6,49.5,41.9,30.4,99,81,55,30.03,29.58,14,2,14,0.15
2013-12-6,49.3,37.9,23.4,31.9,18.0,-0.6,76,45,28,29.75,29.57,21,7,21,0.00
2013-12-7,33.3,24.5,21.0,6.7,0.6,-6.1,49,36,20,30.05,29.70,22,8,22,0.00
2013-12-8,40.3,28.9,15.6,12.1,8.8,2.5,62,43,30,30.15,29.96,14,5,14,0.00
2013-12-9,36.3,32.3,27.0,36.1,27.2,9.5,99,83,39,30.01,29.38,13,3,13,0.89
2013-12-10,42.6,39.1,30.7,42.4,34.0,14.0,99,84,49,29.47,29.07,17,4,17,0.74
2013-12-11,32.4,26.9,21.0,17.7,14.6,9.2,73,60,41,29.96,29.48,21,7,21,0.96
2013-12-12,32.7,21.6,15.8,16.6,6.7,1.2,81,54,30,30.05,29.79,13,4,13,0.00
2013-12-13,33.4,23.8,16.7,17.0,8.8,2.6,67,52,40,30.07,29.73,17,7,17,0.00
2013-12-14,21.7,14.9,10.9,15.5,8.1,3.8,89,74,53,30.26,29.66,16,5,16,0.00
2013-12-15,35.8,27.9,18.1,30.5,22.6,15.5,97,82,55,29.65,29.25,21,4,21,0.00
2013-12-16,38.7,24.8,10.4,20.4,8.6,2.9,75,51,30,29.93,29.45,14,4,14,0.00
2013-12-17,18.9,11.8,3.0,15.1,7.2,-1.6,86,81,75,29.95,29.68,7,1,7,0.00
2013-12-18,39.4,23.1,7.0,24.0,15.3,3.3,89,73,49,29.81,29.65,11,2,11,0.08
2013-12-19,46.4,33.7,24.3,25.6,21.3,15.9,76,61,42,29.83,29.66,18,5,18,0.05
2013-12-20,52.9,39.6,29.8,35.1,27.9,24.3,84,64,45,29.79,29.61,16,3,16,0.00
2013-12-21,57.7,48.0,39.4,46.4,37.2,29.1,92,67,52,29.65,29.53,18,6,18,0.00
2013-12-22,64.0,54.1,43.0,61.8,52.8,41.6,99,95,82,29.62,29.39,20,3,20,0.04
2013-12-23,57.0,44.6,35.4,56.6,43.1,27.0,99,94,70,29.87,29.59,12,3,12,0.39
2013-12-24,36.9,30.3,20.7,27.5,19.8,2.6,89,65,44,30.05,29.81,17,4,17,0.00
2013-12-25,30.6,19.7,13.3,9.1,4.9,2.0,70,53,36,30.25,30.04,12,2,12,0.00
2013-12-26,33.6,25.8,18.0,24.2,17.7,8.6,82,71,62,30.13,29.83,13,3,13,0.00
2013-12-27,41.0,29.2,20.1,23.0,20.0,15.6,90,69,47,30.02,29.92,15,3,15,0.00
2013-12-28,53.2,36.4,24.6,28.9,24.1,18.5,84,63,39,29.94,29.72,21,5,21,0.00
2013-12-29,43.0,35.7,28.9,38.6,31.7,24.3,99,86,54,29.73,29.21,11,2,11,0.79
2013-12-30,39.2,29.9,15.1,34.9,19.6,4.6,99,68,38,29.92,29.36,18,4,18,0.00
2013-12-31,27.1,20.1,13.3,21.0,10.0,2.9,87,65,43,29.95,29.72,15,4,15,0.00
2014-1-1,40.8,24.6,18.3,16.8,9.4,2.8,84,54,30,30.09,29.93,11,3,12,0.00
2014-1-2,19.2,16.3,9.1,15.5,11.9,4.3,86,82,79,30.02,29.91,16,5,16,0.00